sensor_id;sensor_type;location;lat;lon;timestamp;pressure;altitude;pressure_sealevel;temperature;humidity
13027;BME280;6580;42.680;23.324;2023-06-10T00:01:07;94851.97;;;20.21;100.00
13027;BME280;6580;42.680;23.324;2023-06-10T00:03:52;94849.03;;;20.04;100.00
13027;BME280;6580;42.680;23.324;2023-06-10T00:06:38;94855.75;;;19.95;100.00
13027;BME280;6580;42.680;23.324;2023-06-10T00:09:25;94853.16;;;20.07;100.00
13027;BME280;6580;42.680;23.324;2023-06-10T00:12:10;94858.91;;;19.92;100.00
13027;BME280;6580;42.680;23.324;2023-06-10T00:14:56;94850.53;;;20.00;100.00
13027;BME280;6580;42.680;23.324;2023-06-10T00:17:41;94843.72;;;19.91;100.00
13027;BME280;6580;42.680;23.324;2023-06-10T00:20:28;94855.50;;;19.97;100.00
13027;BME280;6580;42.680;23.324;2023-06-10T00:23:14;94846.56;;;19.78;100.00
13027;BME280;6580;42.680;23.324;2023-06-10T00:26:01;94854.16;;;19.88;100.00
13027;BME280;6580;42.680;23.324;2023-06-10T00:28:48;94846.41;;;19.73;100.00
13027;BME280;6580;42.680;23.324;2023-06-10T00:31:34;94857.22;;;19.73;100.00
13027;BME280;6580;42.680;23.324;2023-06-10T00:34:19;94856.66;;;19.65;100.00
13027;BME280;6580;42.680;23.324;2023-06-10T00:37:05;94860.00;;;19.85;100.00
13027;BME280;6580;42.680;23.324;2023-06-10T00:39:50;94850.84;;;19.86;100.00
13027;BME280;6580;42.680;23.324;2023-06-10T00:42:39;94851.59;;;19.99;100.00
13027;BME280;6580;42.680;23.324;2023-06-10T00:45:25;94856.97;;;19.75;100.00
13027;BME280;6580;42.680;23.324;2023-06-10T00:48:10;94845.78;;;19.71;100.00
13027;BME280;6580;42.680;23.324;2023-06-10T00:50:56;94855.22;;;19.87;100.00
13027;BME280;6580;42.680;23.324;2023-06-10T00:53:42;94845.28;;;19.81;100.00
13027;BME280;6580;42.680;23.324;2023-06-10T00:56:28;94846.31;;;20.04;100.00
13027;BME280;6580;42.680;23.324;2023-06-10T00:59:15;94854.22;;;20.06;100.00
13027;BME280;6580;42.680;23.324;2023-06-10T01:02:01;94851.13;;;20.20;100.00
13027;BME280;6580;42.680;23.324;2023-06-10T01:04:47;94850.03;;;20.10;100.00
13027;BME280;6580;42.680;23.324;2023-06-10T01:07:36;94857.19;;;19.98;100.00
13027;BME280;6580;42.680;23.324;2023-06-10T01:10:28;94860.56;;;19.93;100.00
13027;BME280;6580;42.680;23.324;2023-06-10T01:13:17;94860.75;;;19.98;100.00
13027;BME280;6580;42.680;23.324;2023-06-10T01:16:06;94865.13;;;19.93;100.00
13027;BME280;6580;42.680;23.324;2023-06-10T01:18:52;94872.66;;;19.91;100.00
13027;BME280;6580;42.680;23.324;2023-06-10T01:21:40;94862.94;;;19.83;100.00
13027;BME280;6580;42.680;23.324;2023-06-10T01:24:25;94865.66;;;19.83;100.00
13027;BME280;6580;42.680;23.324;2023-06-10T01:27:13;94863.16;;;19.82;100.00
13027;BME280;6580;42.680;23.324;2023-06-10T01:30:05;94870.44;;;19.81;100.00
13027;BME280;6580;42.680;23.324;2023-06-10T01:33:11;94864.75;;;19.89;100.00
13027;BME280;6580;42.680;23.324;2023-06-10T01:36:02;94867.25;;;19.91;100.00
13027;BME280;6580;42.680;23.324;2023-06-10T01:38:50;94869.59;;;19.81;100.00
13027;BME280;6580;42.680;23.324;2023-06-10T01:41:38;94865.84;;;20.06;100.00
13027;BME280;6580;42.680;23.324;2023-06-10T01:44:25;94858.44;;;20.20;100.00
13027;BME280;6580;42.680;23.324;2023-06-10T01:47:10;94858.50;;;20.13;100.00
13027;BME280;6580;42.680;23.324;2023-06-10T01:49:56;94854.75;;;20.14;100.00
13027;BME280;6580;42.680;23.324;2023-06-10T01:52:42;94843.41;;;20.06;100.00
13027;BME280;6580;42.680;23.324;2023-06-10T01:55:29;94847.09;;;20.11;100.00
13027;BME280;6580;42.680;23.324;2023-06-10T01:58:15;94845.13;;;20.00;100.00
13027;BME280;6580;42.680;23.324;2023-06-10T02:01:00;94839.06;;;20.23;100.00
13027;BME280;6580;42.680;23.324;2023-06-10T02:03:45;94829.50;;;20.20;100.00
13027;BME280;6580;42.680;23.324;2023-06-10T02:06:31;94835.13;;;20.01;100.00
13027;BME280;6580;42.680;23.324;2023-06-10T02:09:18;94831.00;;;19.98;100.00
13027;BME280;6580;42.680;23.324;2023-06-10T02:12:06;94842.66;;;20.17;100.00
13027;BME280;6580;42.680;23.324;2023-06-10T02:14:53;94832.88;;;20.16;100.00
13027;BME280;6580;42.680;23.324;2023-06-10T02:17:38;94838.88;;;20.18;100.00
13027;BME280;6580;42.680;23.324;2023-06-10T02:20:24;94834.25;;;20.25;100.00
13027;BME280;6580;42.680;23.324;2023-06-10T02:23:09;94813.22;;;20.27;100.00
13027;BME280;6580;42.680;23.324;2023-06-10T02:25:56;94821.38;;;20.20;100.00
13027;BME280;6580;42.680;23.324;2023-06-10T02:28:44;94809.66;;;20.08;100.00
13027;BME280;6580;42.680;23.324;2023-06-10T02:31:29;94810.78;;;20.19;100.00
13027;BME280;6580;42.680;23.324;2023-06-10T02:34:14;94807.56;;;20.28;100.00
13027;BME280;6580;42.680;23.324;2023-06-10T02:37:00;94820.31;;;20.21;100.00
13027;BME280;6580;42.680;23.324;2023-06-10T02:39:46;94822.47;;;20.19;100.00
13027;BME280;6580;42.680;23.324;2023-06-10T02:42:31;94821.25;;;20.15;100.00
13027;BME280;6580;42.680;23.324;2023-06-10T02:45:18;94808.69;;;20.21;100.00
13027;BME280;6580;42.680;23.324;2023-06-10T02:48:06;94810.44;;;20.15;100.00
13027;BME280;6580;42.680;23.324;2023-06-10T02:50:54;94803.97;;;20.16;100.00
13027;BME280;6580;42.680;23.324;2023-06-10T02:53:41;94805.16;;;20.20;100.00
13027;BME280;6580;42.680;23.324;2023-06-10T02:56:27;94797.09;;;20.32;100.00
13027;BME280;6580;42.680;23.324;2023-06-10T02:59:13;94805.53;;;20.24;100.00
13027;BME280;6580;42.680;23.324;2023-06-10T03:02:01;94805.75;;;20.04;100.00
13027;BME280;6580;42.680;23.324;2023-06-10T03:04:47;94818.66;;;20.20;100.00
13027;BME280;6580;42.680;23.324;2023-06-10T03:07:34;94820.03;;;20.11;100.00
13027;BME280;6580;42.680;23.324;2023-06-10T03:10:20;94823.34;;;20.13;100.00
13027;BME280;6580;42.680;23.324;2023-06-10T03:13:05;94824.69;;;20.04;100.00
13027;BME280;6580;42.680;23.324;2023-06-10T03:15:51;94827.47;;;20.16;100.00
13027;BME280;6580;42.680;23.324;2023-06-10T03:18:38;94828.75;;;20.13;100.00
13027;BME280;6580;42.680;23.324;2023-06-10T03:21:25;94829.75;;;19.94;100.00
13027;BME280;6580;42.680;23.324;2023-06-10T03:24:11;94844.34;;;19.93;100.00
13027;BME280;6580;42.680;23.324;2023-06-10T03:26:56;94847.28;;;19.92;100.00
13027;BME280;6580;42.680;23.324;2023-06-10T03:29:43;94857.31;;;19.85;100.00
13027;BME280;6580;42.680;23.324;2023-06-10T03:32:29;94866.09;;;19.80;100.00
13027;BME280;6580;42.680;23.324;2023-06-10T03:35:17;94864.66;;;19.78;100.00
13027;BME280;6580;42.680;23.324;2023-06-10T03:38:03;94865.97;;;19.93;100.00
13027;BME280;6580;42.680;23.324;2023-06-10T03:40:48;94860.56;;;19.93;100.00
13027;BME280;6580;42.680;23.324;2023-06-10T03:43:35;94865.13;;;19.93;100.00
13027;BME280;6580;42.680;23.324;2023-06-10T03:46:23;94873.19;;;19.75;100.00
13027;BME280;6580;42.680;23.324;2023-06-10T03:49:09;94875.38;;;19.84;100.00
13027;BME280;6580;42.680;23.324;2023-06-10T03:51:56;94862.94;;;19.83;100.00
13027;BME280;6580;42.680;23.324;2023-06-10T03:54:41;94853.22;;;19.76;100.00
13027;BME280;6580;42.680;23.324;2023-06-10T03:57:27;94860.59;;;19.69;100.00
13027;BME280;6580;42.680;23.324;2023-06-10T04:00:13;94861.44;;;19.87;100.00
13027;BME280;6580;42.680;23.324;2023-06-10T04:02:59;94855.72;;;19.77;100.00
13027;BME280;6580;42.680;23.324;2023-06-10T04:05:45;94865.28;;;19.55;100.00
13027;BME280;6580;42.680;23.324;2023-06-10T04:08:32;94860.91;;;19.54;100.00
13027;BME280;6580;42.680;23.324;2023-06-10T04:11:17;94864.06;;;19.51;100.00
13027;BME280;6580;42.680;23.324;2023-06-10T04:14:03;94863.34;;;19.62;100.00
13027;BME280;6580;42.680;23.324;2023-06-10T04:16:49;94870.25;;;19.58;100.00
13027;BME280;6580;42.680;23.324;2023-06-10T04:19:35;94866.31;;;19.54;100.00
13027;BME280;6580;42.680;23.324;2023-06-10T04:22:21;94870.41;;;19.63;100.00
13027;BME280;6580;42.680;23.324;2023-06-10T04:25:09;94862.25;;;19.70;100.00
13027;BME280;6580;42.680;23.324;2023-06-10T04:27:55;94870.13;;;19.71;100.00
13027;BME280;6580;42.680;23.324;2023-06-10T04:30:40;94872.28;;;19.63;100.00
13027;BME280;6580;42.680;23.324;2023-06-10T04:33:26;94864.41;;;19.61;100.00
13027;BME280;6580;42.680;23.324;2023-06-10T04:36:14;94865.69;;;19.77;100.00
13027;BME280;6580;42.680;23.324;2023-06-10T04:39:00;94864.50;;;19.73;100.00
13027;BME280;6580;42.680;23.324;2023-06-10T04:41:48;94864.59;;;19.60;100.00
13027;BME280;6580;42.680;23.324;2023-06-10T04:44:34;94859.38;;;19.41;100.00
13027;BME280;6580;42.680;23.324;2023-06-10T04:47:20;94873.44;;;19.49;100.00
13027;BME280;6580;42.680;23.324;2023-06-10T04:50:06;94865.75;;;19.70;100.00
13027;BME280;6580;42.680;23.324;2023-06-10T04:52:52;94862.72;;;19.85;100.00
13027;BME280;6580;42.680;23.324;2023-06-10T04:55:37;94865.97;;;19.93;100.00
13027;BME280;6580;42.680;23.324;2023-06-10T04:58:24;94856.09;;;20.05;100.00
13027;BME280;6580;42.680;23.324;2023-06-10T05:01:09;94851.69;;;20.11;100.00
13027;BME280;6580;42.680;23.324;2023-06-10T05:03:58;94856.16;;;20.17;100.00
13027;BME280;6580;42.680;23.324;2023-06-10T05:06:43;94849.78;;;20.11;100.00
13027;BME280;6580;42.680;23.324;2023-06-10T05:09:29;94854.25;;;19.81;100.00
13027;BME280;6580;42.680;23.324;2023-06-10T05:12:15;94853.63;;;19.79;100.00
13027;BME280;6580;42.680;23.324;2023-06-10T05:15:02;94865.25;;;19.80;100.00
13027;BME280;6580;42.680;23.324;2023-06-10T05:17:47;94860.59;;;20.29;100.00
13027;BME280;6580;42.680;23.324;2023-06-10T05:20:33;94847.97;;;20.41;100.00
13027;BME280;6580;42.680;23.324;2023-06-10T05:23:20;94843.47;;;20.53;100.00
13027;BME280;6580;42.680;23.324;2023-06-10T05:26:06;94850.66;;;20.59;100.00
13027;BME280;6580;42.680;23.324;2023-06-10T05:28:54;94847.91;;;20.77;100.00
13027;BME280;6580;42.680;23.324;2023-06-10T05:31:43;94852.91;;;20.80;100.00
13027;BME280;6580;42.680;23.324;2023-06-10T05:34:31;94855.75;;;20.85;100.00
13027;BME280;6580;42.680;23.324;2023-06-10T05:37:17;94854.91;;;21.14;100.00
13027;BME280;6580;42.680;23.324;2023-06-10T05:40:04;94854.25;;;21.18;100.00
13027;BME280;6580;42.680;23.324;2023-06-10T05:42:50;94853.69;;;21.39;100.00
13027;BME280;6580;42.680;23.324;2023-06-10T05:45:35;94848.53;;;21.49;100.00
13027;BME280;6580;42.680;23.324;2023-06-10T05:48:26;94850.81;;;21.86;100.00
13027;BME280;6580;42.680;23.324;2023-06-10T05:51:12;94849.75;;;21.87;100.00
13027;BME280;6580;42.680;23.324;2023-06-10T05:53:58;94846.34;;;21.57;100.00
13027;BME280;6580;42.680;23.324;2023-06-10T05:56:43;94844.06;;;21.54;100.00
13027;BME280;6580;42.680;23.324;2023-06-10T05:59:29;94852.88;;;21.39;100.00
13027;BME280;6580;42.680;23.324;2023-06-10T06:02:15;94856.25;;;21.75;100.00
13027;BME280;6580;42.680;23.324;2023-06-10T06:05:02;94861.66;;;21.23;100.00
13027;BME280;6580;42.680;23.324;2023-06-10T06:07:48;94862.16;;;21.31;100.00
13027;BME280;6580;42.680;23.324;2023-06-10T06:10:34;94859.38;;;21.49;100.00
13027;BME280;6580;42.680;23.324;2023-06-10T06:13:21;94851.16;;;22.24;100.00
13027;BME280;6580;42.680;23.324;2023-06-10T06:16:06;94854.47;;;22.26;100.00
13027;BME280;6580;42.680;23.324;2023-06-10T06:18:52;94848.91;;;22.21;100.00
13027;BME280;6580;42.680;23.324;2023-06-10T06:21:39;94846.47;;;22.43;100.00
13027;BME280;6580;42.680;23.324;2023-06-10T06:24:25;94850.06;;;22.71;100.00
13027;BME280;6580;42.680;23.324;2023-06-10T06:27:10;94851.41;;;22.85;100.00
13027;BME280;6580;42.680;23.324;2023-06-10T06:29:56;94866.66;;;23.14;100.00
13027;BME280;6580;42.680;23.324;2023-06-10T06:32:42;94859.94;;;23.16;99.85
13027;BME280;6580;42.680;23.324;2023-06-10T06:35:30;94854.94;;;22.85;100.00
13027;BME280;6580;42.680;23.324;2023-06-10T06:38:17;94845.53;;;23.16;100.00
13027;BME280;6580;42.680;23.324;2023-06-10T06:41:02;94854.16;;;23.13;100.00
13027;BME280;6580;42.680;23.324;2023-06-10T06:43:49;94838.13;;;23.00;100.00
13027;BME280;6580;42.680;23.324;2023-06-10T06:46:53;94851.53;;;23.18;100.00
13027;BME280;6580;42.680;23.324;2023-06-10T06:49:43;94840.00;;;23.11;100.00
13027;BME280;6580;42.680;23.324;2023-06-10T06:52:31;94843.06;;;23.31;100.00
13027;BME280;6580;42.680;23.324;2023-06-10T06:55:18;94837.13;;;23.62;99.26
13027;BME280;6580;42.680;23.324;2023-06-10T06:58:04;94843.16;;;23.80;97.37
13027;BME280;6580;42.680;23.324;2023-06-10T07:00:50;94838.28;;;23.98;94.54
13027;BME280;6580;42.680;23.324;2023-06-10T07:03:35;94837.63;;;24.08;93.42
13027;BME280;6580;42.680;23.324;2023-06-10T07:06:21;94839.22;;;24.25;91.18
13027;BME280;6580;42.680;23.324;2023-06-10T07:09:07;94840.25;;;24.41;90.61
13027;BME280;6580;42.680;23.324;2023-06-10T07:11:55;94826.56;;;24.52;89.37
13027;BME280;6580;42.680;23.324;2023-06-10T07:14:41;94808.50;;;24.46;89.30
13027;BME280;6580;42.680;23.324;2023-06-10T07:17:26;94824.44;;;25.02;84.75
13027;BME280;6580;42.680;23.324;2023-06-10T07:20:12;94822.19;;;25.42;80.22
13027;BME280;6580;42.680;23.324;2023-06-10T07:22:58;94816.44;;;25.38;81.03
13027;BME280;6580;42.680;23.324;2023-06-10T07:25:45;94820.03;;;25.17;78.68
13027;BME280;6580;42.680;23.324;2023-06-10T07:28:36;94815.41;;;24.16;85.02
13027;BME280;6580;42.680;23.324;2023-06-10T07:31:22;94818.38;;;24.14;79.93
13027;BME280;6580;42.680;23.324;2023-06-10T07:34:08;94813.34;;;24.61;74.11
13027;BME280;6580;42.680;23.324;2023-06-10T07:36:54;94803.19;;;25.25;67.56
13027;BME280;6580;42.680;23.324;2023-06-10T07:39:40;94801.69;;;25.71;68.05
13027;BME280;6580;42.680;23.324;2023-06-10T07:42:28;94818.22;;;25.28;64.97
13027;BME280;6580;42.680;23.324;2023-06-10T07:45:15;94803.66;;;25.17;65.28
13027;BME280;6580;42.680;23.324;2023-06-10T07:48:01;94817.06;;;24.55;70.45
13027;BME280;6580;42.680;23.324;2023-06-10T07:50:47;94816.22;;;25.45;65.44
13027;BME280;6580;42.680;23.324;2023-06-10T07:53:36;94806.50;;;27.59;57.27
13027;BME280;6580;42.680;23.324;2023-06-10T07:56:23;94804.78;;;28.67;52.18
13027;BME280;6580;42.680;23.324;2023-06-10T07:59:11;94795.94;;;29.87;48.84
13027;BME280;6580;42.680;23.324;2023-06-10T08:02:00;94794.69;;;30.64;46.54
13027;BME280;6580;42.680;23.324;2023-06-10T08:04:45;94797.84;;;31.65;43.92
13027;BME280;6580;42.680;23.324;2023-06-10T08:07:34;94795.00;;;31.88;40.31
13027;BME280;6580;42.680;23.324;2023-06-10T08:10:22;94792.13;;;31.80;37.33
13027;BME280;6580;42.680;23.324;2023-06-10T08:13:08;94792.59;;;32.00;36.94
13027;BME280;6580;42.680;23.324;2023-06-10T08:15:54;94790.56;;;32.06;37.07
13027;BME280;6580;42.680;23.324;2023-06-10T08:18:42;94792.44;;;29.33;41.23
13027;BME280;6580;42.680;23.324;2023-06-10T08:21:29;94781.44;;;30.14;39.83
13027;BME280;6580;42.680;23.324;2023-06-10T08:24:16;94786.72;;;29.24;42.39
13027;BME280;6580;42.680;23.324;2023-06-10T08:27:02;94777.69;;;31.09;40.14
13027;BME280;6580;42.680;23.324;2023-06-10T08:29:49;94773.63;;;31.99;36.18
13027;BME280;6580;42.680;23.324;2023-06-10T08:32:35;94761.16;;;32.01;36.18
13027;BME280;6580;42.680;23.324;2023-06-10T08:35:22;94770.31;;;31.65;36.83
13027;BME280;6580;42.680;23.324;2023-06-10T08:38:09;94766.78;;;31.78;36.83
13027;BME280;6580;42.680;23.324;2023-06-10T08:40:56;94760.06;;;31.28;36.45
13027;BME280;6580;42.680;23.324;2023-06-10T08:43:48;94763.53;;;31.76;35.59
13027;BME280;6580;42.680;23.324;2023-06-10T08:46:36;94765.94;;;31.40;35.34
13027;BME280;6580;42.680;23.324;2023-06-10T08:49:23;94756.66;;;31.55;34.00
13027;BME280;6580;42.680;23.324;2023-06-10T08:52:14;94759.31;;;30.29;35.75
13027;BME280;6580;42.680;23.324;2023-06-10T08:55:11;94748.47;;;31.31;36.09
13027;BME280;6580;42.680;23.324;2023-06-10T08:57:59;94732.56;;;31.47;35.69
13027;BME280;6580;42.680;23.324;2023-06-10T09:00:45;94748.25;;;31.83;35.75
13027;BME280;6580;42.680;23.324;2023-06-10T09:03:36;94743.53;;;32.47;33.76
13027;BME280;6580;42.680;23.324;2023-06-10T09:06:29;94739.41;;;32.77;33.58
13027;BME280;6580;42.680;23.324;2023-06-10T09:09:19;94727.44;;;33.08;32.63
13027;BME280;6580;42.680;23.324;2023-06-10T09:12:07;94723.56;;;32.10;33.48
13027;BME280;6580;42.680;23.324;2023-06-10T09:14:55;94734.59;;;31.92;34.07
13027;BME280;6580;42.680;23.324;2023-06-10T09:17:41;94722.72;;;32.95;32.44
13027;BME280;6580;42.680;23.324;2023-06-10T09:20:28;94727.50;;;33.79;31.03
13027;BME280;6580;42.680;23.324;2023-06-10T09:23:15;94711.91;;;31.81;33.05
13027;BME280;6580;42.680;23.324;2023-06-10T09:26:02;94728.47;;;29.42;38.57
13027;BME280;6580;42.680;23.324;2023-06-10T09:28:49;94718.06;;;30.58;36.95
13027;BME280;6580;42.680;23.324;2023-06-10T09:31:35;94725.44;;;30.10;39.05
13027;BME280;6580;42.680;23.324;2023-06-10T09:34:25;94737.00;;;29.36;39.47
13027;BME280;6580;42.680;23.324;2023-06-10T09:37:11;94725.25;;;31.19;36.59
13027;BME280;6580;42.680;23.324;2023-06-10T09:40:02;94712.09;;;32.89;33.79
13027;BME280;6580;42.680;23.324;2023-06-10T09:42:54;94699.50;;;34.46;32.00
13027;BME280;6580;42.680;23.324;2023-06-10T09:45:41;94699.88;;;35.00;30.52
13027;BME280;6580;42.680;23.324;2023-06-10T09:48:28;94698.53;;;34.89;30.74
13027;BME280;6580;42.680;23.324;2023-06-10T09:51:14;94696.06;;;33.39;32.24
13027;BME280;6580;42.680;23.324;2023-06-10T09:54:04;94694.41;;;34.39;31.17
13027;BME280;6580;42.680;23.324;2023-06-10T09:56:50;94694.34;;;34.61;30.69
13027;BME280;6580;42.680;23.324;2023-06-10T09:59:42;94683.69;;;34.16;30.76
13027;BME280;6580;42.680;23.324;2023-06-10T10:02:29;94689.91;;;34.91;29.62
13027;BME280;6580;42.680;23.324;2023-06-10T10:05:19;94690.91;;;33.60;29.71
13027;BME280;6580;42.680;23.324;2023-06-10T10:08:06;94689.53;;;32.73;31.54
13027;BME280;6580;42.680;23.324;2023-06-10T10:10:52;94690.84;;;30.98;33.40
13027;BME280;6580;42.680;23.324;2023-06-10T10:13:38;94682.50;;;30.19;34.60
13027;BME280;6580;42.680;23.324;2023-06-10T10:16:32;94686.34;;;30.42;34.93
13027;BME280;6580;42.680;23.324;2023-06-10T10:19:27;94669.09;;;32.61;32.73
13027;BME280;6580;42.680;23.324;2023-06-10T10:22:19;94664.28;;;34.38;30.39
13027;BME280;6580;42.680;23.324;2023-06-10T10:25:10;94664.31;;;33.64;31.29
13027;BME280;6580;42.680;23.324;2023-06-10T10:28:07;94666.41;;;35.95;28.65
13027;BME280;6580;42.680;23.324;2023-06-10T10:30:58;94665.69;;;33.75;31.49
13027;BME280;6580;42.680;23.324;2023-06-10T10:33:53;94661.66;;;30.37;36.04
13027;BME280;6580;42.680;23.324;2023-06-10T10:36:42;94665.63;;;32.55;33.78
13027;BME280;6580;42.680;23.324;2023-06-10T10:39:29;94653.31;;;34.25;30.95
13027;BME280;6580;42.680;23.324;2023-06-10T10:42:17;94661.44;;;34.90;29.99
13027;BME280;6580;42.680;23.324;2023-06-10T10:45:04;94651.75;;;34.71;29.28
13027;BME280;6580;42.680;23.324;2023-06-10T10:47:52;94650.84;;;34.53;29.58
13027;BME280;6580;42.680;23.324;2023-06-10T10:50:43;94638.72;;;35.78;28.95
13027;BME280;6580;42.680;23.324;2023-06-10T10:53:32;94645.66;;;33.34;31.56
13027;BME280;6580;42.680;23.324;2023-06-10T10:56:18;94638.06;;;33.39;31.80
13027;BME280;6580;42.680;23.324;2023-06-10T10:59:05;94646.13;;;34.15;30.89
13027;BME280;6580;42.680;23.324;2023-06-10T11:01:51;94634.97;;;34.67;30.51
13027;BME280;6580;42.680;23.324;2023-06-10T11:04:37;94639.50;;;34.63;28.61
13027;BME280;6580;42.680;23.324;2023-06-10T11:07:31;94644.94;;;34.77;29.16
13027;BME280;6580;42.680;23.324;2023-06-10T11:10:17;94635.19;;;34.88;27.47
13027;BME280;6580;42.680;23.324;2023-06-10T11:13:18;94616.09;;;34.31;29.08
13027;BME280;6580;42.680;23.324;2023-06-10T11:16:05;94616.31;;;33.38;29.94
13027;BME280;6580;42.680;23.324;2023-06-10T11:18:55;94607.06;;;32.58;31.17
13027;BME280;6580;42.680;23.324;2023-06-10T11:21:59;94616.53;;;32.93;32.44
13027;BME280;6580;42.680;23.324;2023-06-10T11:25:00;94609.53;;;33.22;31.73
13027;BME280;6580;42.680;23.324;2023-06-10T11:27:54;94607.19;;;33.16;31.72
13027;BME280;6580;42.680;23.324;2023-06-10T11:30:42;94611.31;;;31.97;33.32
13027;BME280;6580;42.680;23.324;2023-06-10T11:33:29;94594.19;;;31.55;33.34
13027;BME280;6580;42.680;23.324;2023-06-10T11:36:19;94603.47;;;30.53;35.25
13027;BME280;6580;42.680;23.324;2023-06-10T11:39:06;94604.09;;;30.45;35.06
13027;BME280;6580;42.680;23.324;2023-06-10T11:42:01;94609.06;;;30.02;36.10
13027;BME280;6580;42.680;23.324;2023-06-10T11:44:50;94594.53;;;29.39;37.30
13027;BME280;6580;42.680;23.324;2023-06-10T11:47:37;94606.31;;;28.73;38.87
13027;BME280;6580;42.680;23.324;2023-06-10T11:50:31;94605.06;;;29.61;37.95
13027;BME280;6580;42.680;23.324;2023-06-10T11:53:17;94593.13;;;29.47;37.78
13027;BME280;6580;42.680;23.324;2023-06-10T11:56:03;94597.28;;;29.68;36.60
13027;BME280;6580;42.680;23.324;2023-06-10T11:58:54;94585.91;;;31.55;33.98
13027;BME280;6580;42.680;23.324;2023-06-10T12:01:43;94585.19;;;33.11;32.48
13027;BME280;6580;42.680;23.324;2023-06-10T12:04:28;94588.38;;;32.55;31.17
13027;BME280;6580;42.680;23.324;2023-06-10T12:07:18;94569.94;;;32.16;31.90
13027;BME280;6580;42.680;23.324;2023-06-10T12:10:07;94578.63;;;31.64;31.36
13027;BME280;6580;42.680;23.324;2023-06-10T12:12:54;94594.41;;;30.90;31.60
13027;BME280;6580;42.680;23.324;2023-06-10T12:15:41;94590.78;;;30.76;32.01
13027;BME280;6580;42.680;23.324;2023-06-10T12:18:27;94582.34;;;30.86;31.57
13027;BME280;6580;42.680;23.324;2023-06-10T12:21:17;94583.75;;;30.46;31.02
13027;BME280;6580;42.680;23.324;2023-06-10T12:24:06;94583.19;;;30.26;31.50
13027;BME280;6580;42.680;23.324;2023-06-10T12:26:53;94581.88;;;29.72;31.63
13027;BME280;6580;42.680;23.324;2023-06-10T12:29:50;94574.16;;;29.50;31.85
13027;BME280;6580;42.680;23.324;2023-06-10T12:32:41;94575.94;;;29.65;32.08
13027;BME280;6580;42.680;23.324;2023-06-10T12:35:27;94580.19;;;29.52;31.26
13027;BME280;6580;42.680;23.324;2023-06-10T12:38:12;94574.50;;;29.44;31.66
13027;BME280;6580;42.680;23.324;2023-06-10T12:41:01;94571.25;;;29.65;30.94
13027;BME280;6580;42.680;23.324;2023-06-10T12:43:48;94565.38;;;29.48;30.74
13027;BME280;6580;42.680;23.324;2023-06-10T12:46:36;94553.13;;;29.41;30.80
13027;BME280;6580;42.680;23.324;2023-06-10T12:49:23;94563.19;;;29.74;31.29
13027;BME280;6580;42.680;23.324;2023-06-10T12:52:10;94565.78;;;30.12;30.16
13027;BME280;6580;42.680;23.324;2023-06-10T12:54:56;94562.97;;;30.17;30.71
13027;BME280;6580;42.680;23.324;2023-06-10T12:57:48;94572.59;;;29.68;31.03
13027;BME280;6580;42.680;23.324;2023-06-10T13:00:34;94568.25;;;30.13;30.92
13027;BME280;6580;42.680;23.324;2023-06-10T13:03:21;94563.66;;;30.27;30.55
13027;BME280;6580;42.680;23.324;2023-06-10T13:06:11;94566.34;;;30.32;30.50
13027;BME280;6580;42.680;23.324;2023-06-10T13:08:57;94570.41;;;30.58;30.44
13027;BME280;6580;42.680;23.324;2023-06-10T13:11:43;94575.78;;;29.80;31.27
13027;BME280;6580;42.680;23.324;2023-06-10T13:14:30;94570.50;;;29.60;32.18
13027;BME280;6580;42.680;23.324;2023-06-10T13:17:17;94572.09;;;29.66;31.96
13027;BME280;6580;42.680;23.324;2023-06-10T13:20:02;94578.91;;;29.06;32.53
13027;BME280;6580;42.680;23.324;2023-06-10T13:22:50;94588.56;;;28.99;34.02
13027;BME280;6580;42.680;23.324;2023-06-10T13:25:36;94589.06;;;28.09;39.81
13027;BME280;6580;42.680;23.324;2023-06-10T13:28:21;94602.75;;;28.09;41.90
13027;BME280;6580;42.680;23.324;2023-06-10T13:31:08;94611.03;;;27.94;43.41
13027;BME280;6580;42.680;23.324;2023-06-10T13:33:54;94601.84;;;27.41;44.99
13027;BME280;6580;42.680;23.324;2023-06-10T13:36:42;94602.38;;;27.03;46.41
13027;BME280;6580;42.680;23.324;2023-06-10T13:39:29;94611.44;;;25.97;50.96
13027;BME280;6580;42.680;23.324;2023-06-10T13:42:16;94615.72;;;26.45;51.94
13027;BME280;6580;42.680;23.324;2023-06-10T13:45:05;94621.16;;;26.50;57.90
13027;BME280;6580;42.680;23.324;2023-06-10T13:47:51;94614.41;;;26.82;64.81
13027;BME280;6580;42.680;23.324;2023-06-10T13:50:37;94616.03;;;26.83;66.17
13027;BME280;6580;42.680;23.324;2023-06-10T13:53:31;94611.63;;;26.57;66.08
13027;BME280;6580;42.680;23.324;2023-06-10T13:56:21;94617.00;;;26.27;68.57
13027;BME280;6580;42.680;23.324;2023-06-10T13:59:08;94615.03;;;26.13;67.46
13027;BME280;6580;42.680;23.324;2023-06-10T14:01:54;94614.78;;;26.24;66.98
13027;BME280;6580;42.680;23.324;2023-06-10T14:04:40;94621.50;;;26.73;62.86
13027;BME280;6580;42.680;23.324;2023-06-10T14:07:26;94615.81;;;27.04;62.05
13027;BME280;6580;42.680;23.324;2023-06-10T14:10:18;94620.91;;;26.46;61.64
13027;BME280;6580;42.680;23.324;2023-06-10T14:13:05;94630.06;;;26.15;64.57
13027;BME280;6580;42.680;23.324;2023-06-10T14:15:50;94631.91;;;26.00;64.38
13027;BME280;6580;42.680;23.324;2023-06-10T14:18:36;94626.09;;;26.43;63.02
13027;BME280;6580;42.680;23.324;2023-06-10T14:21:23;94631.84;;;26.51;62.11
13027;BME280;6580;42.680;23.324;2023-06-10T14:24:08;94631.06;;;26.61;61.04
13027;BME280;6580;42.680;23.324;2023-06-10T14:26:57;94634.09;;;26.74;59.61
13027;BME280;6580;42.680;23.324;2023-06-10T14:29:45;94622.53;;;26.47;60.87
13027;BME280;6580;42.680;23.324;2023-06-10T14:32:32;94632.91;;;26.45;60.29
13027;BME280;6580;42.680;23.324;2023-06-10T14:35:17;94619.53;;;26.44;58.59
13027;BME280;6580;42.680;23.324;2023-06-10T14:38:02;94620.50;;;26.18;59.57
13027;BME280;6580;42.680;23.324;2023-06-10T14:40:48;94628.84;;;26.48;58.05